Time;durP1;ratioP1;P1;durP2;ratioP2;P2;SDS_P1;SDS_P2;PMS_P1;PMS_P2;Temp;Humidity;BMP_temperature;BMP_pressure;BME280_temperature;BME280_humidity;BME280_pressure;Samples;Min_cycle;Max_cycle;Signal;HPM_P1;HPM_P2
2021/07/31 00:00:33;;;;;;;3.60;3.30;;;22.20;59.00;;;;;;5010001;28;20213;-79
2021/07/31 00:03:03;;;;;;;3.55;3.25;;;22.20;59.00;;;;;;5026270;28;20258;-81
2021/07/31 00:05:32;;;;;;;3.70;3.40;;;22.20;59.00;;;;;;5026651;28;20182;-80
2021/07/31 00:08:03;;;;;;;3.58;3.28;;;22.20;59.00;;;;;;5046724;28;20223;-79
2021/07/31 00:10:30;;;;;;;4.10;3.33;;;22.20;58.90;;;;;;5021136;28;20222;-79
2021/07/31 00:12:57;;;;;;;3.65;3.35;;;22.20;58.90;;;;;;5003897;28;20159;-80
2021/07/31 00:15:23;;;;;;;3.80;3.50;;;22.30;58.90;;;;;;5005128;28;20155;-79
2021/07/31 00:17:50;;;;;;;3.53;3.22;;;22.20;58.90;;;;;;5021178;28;20229;-79
2021/07/31 00:20:16;;;;;;;3.75;3.45;;;22.20;58.90;;;;;;5005023;28;20159;-79
2021/07/31 00:22:42;;;;;;;3.65;3.35;;;22.30;59.00;;;;;;5021247;28;20574;-79
2021/07/31 00:25:08;;;;;;;3.50;3.20;;;22.20;59.00;;;;;;5005034;28;20227;-79
2021/07/31 00:27:34;;;;;;;3.50;3.20;;;22.20;59.00;;;;;;5021460;28;20633;-80
2021/07/31 00:30:00;;;;;;;3.40;3.10;;;22.20;59.00;;;;;;5005431;28;20171;-80
2021/07/31 00:32:26;;;;;;;3.72;3.42;;;22.20;59.00;;;;;;5022520;28;20156;-80
2021/07/31 00:34:53;;;;;;;3.55;3.25;;;22.20;59.00;;;;;;4989249;28;20172;-81
2021/07/31 00:37:19;;;;;;;3.60;3.30;;;22.20;59.00;;;;;;4988454;28;20199;-79
2021/07/31 00:39:45;;;;;;;3.83;3.53;;;22.30;59.70;;;;;;5004725;28;20215;-80
2021/07/31 00:42:15;;;;;;;3.60;3.30;;;22.20;59.00;;;;;;5004362;28;20152;-80
2021/07/31 00:44:48;;;;;;;4.03;3.70;;;22.20;59.00;;;;;;4987465;28;20190;-81
2021/07/31 00:47:17;;;;;;;3.53;3.22;;;22.20;59.00;;;;;;5072309;28;20183;-79
2021/07/31 00:49:46;;;;;;;3.60;3.30;;;22.20;59.00;;;;;;5054392;28;20243;-80
2021/07/31 00:52:14;;;;;;;3.83;3.40;;;22.30;59.00;;;;;;5019656;28;20191;-81
2021/07/31 00:54:44;;;;;;;3.50;3.20;;;22.20;59.00;;;;;;5002767;28;20201;-79
2021/07/31 00:57:09;;;;;;;4.10;3.40;;;22.20;59.00;;;;;;4971451;28;20222;-79
2021/07/31 00:59:35;;;;;;;3.65;3.35;;;22.30;59.00;;;;;;5003948;28;20163;-79
2021/07/31 01:02:01;;;;;;;3.72;3.42;;;22.30;59.00;;;;;;5004307;28;20171;-79
2021/07/31 01:04:28;;;;;;;3.75;3.45;;;22.30;59.00;;;;;;4987669;28;20162;-79
2021/07/31 01:06:53;;;;;;;3.92;3.58;;;22.30;59.00;;;;;;5009190;28;20242;-79
2021/07/31 01:09:20;;;;;;;3.58;3.28;;;22.30;59.00;;;;;;5023158;28;20187;-79
2021/07/31 01:11:47;;;;;;;3.60;3.30;;;22.20;59.00;;;;;;5007361;28;20192;-79
2021/07/31 01:14:12;;;;;;;3.70;3.40;;;22.30;59.10;;;;;;5006910;28;20632;-80
2021/07/31 01:16:38;;;;;;;3.60;3.30;;;22.30;59.10;;;;;;5009171;28;20191;-79
2021/07/31 01:19:06;;;;;;;4.03;3.63;;;22.30;59.10;;;;;;5026834;28;20152;-80
2021/07/31 01:21:36;;;;;;;3.80;3.50;;;22.30;59.10;;;;;;5010641;28;20597;-79
2021/07/31 01:24:02;;;;;;;3.83;3.53;;;22.30;59.10;;;;;;5010838;28;20155;-80
2021/07/31 01:26:29;;;;;;;3.70;3.40;;;22.30;59.10;;;;;;5027255;28;20185;-79
2021/07/31 01:28:56;;;;;;;3.70;3.40;;;22.20;59.10;;;;;;5026699;28;20151;-79
2021/07/31 01:31:24;;;;;;;3.55;3.25;;;22.30;59.10;;;;;;5026534;28;20198;-80
2021/07/31 01:33:53;;;;;;;3.78;3.47;;;22.30;59.10;;;;;;5009593;28;20262;-80
2021/07/31 01:36:22;;;;;;;3.50;3.20;;;22.20;59.00;;;;;;5077563;28;20210;-79
2021/07/31 01:38:51;;;;;;;3.80;3.50;;;22.20;59.10;;;;;;5095046;28;20263;-79
2021/07/31 01:41:20;;;;;;;3.60;3.30;;;22.30;59.10;;;;;;5009898;28;20187;-79
2021/07/31 01:43:50;;;;;;;3.95;3.65;;;22.30;59.00;;;;;;5094528;28;20175;-79
2021/07/31 01:46:19;;;;;;;3.95;3.63;;;22.20;59.00;;;;;;5009661;28;20178;-79
2021/07/31 01:48:45;;;;;;;3.80;3.50;;;22.30;59.10;;;;;;5008845;28;20292;-80
2021/07/31 01:51:10;;;;;;;3.90;3.50;;;22.20;59.10;;;;;;5026735;28;20199;-79
2021/07/31 01:53:40;;;;;;;3.72;3.42;;;22.30;59.10;;;;;;5026662;28;20218;-79
2021/07/31 01:56:07;;;;;;;3.92;3.63;;;22.30;59.10;;;;;;5042705;28;20201;-79
2021/07/31 01:58:34;;;;;;;3.88;3.58;;;22.30;59.10;;;;;;5042544;28;20254;-79
2021/07/31 02:01:00;;;;;;;3.78;3.47;;;22.30;59.10;;;;;;5042866;28;20231;-79
2021/07/31 02:03:27;;;;;;;3.63;3.33;;;22.30;59.10;;;;;;5042648;28;20159;-80
2021/07/31 02:05:53;;;;;;;3.90;3.55;;;22.30;59.10;;;;;;5010208;28;20166;-79
2021/07/31 02:08:21;;;;;;;3.65;3.35;;;22.30;59.10;;;;;;5009794;28;20219;-79
2021/07/31 02:10:46;;;;;;;4.10;3.70;;;22.30;59.20;;;;;;5006157;28;20160;-80
2021/07/31 02:13:15;;;;;;;3.60;3.30;;;22.30;59.10;;;;;;4990125;28;20197;-80
2021/07/31 02:15:41;;;;;;;3.60;3.30;;;22.30;59.20;;;;;;4990455;28;20171;-79
2021/07/31 02:18:07;;;;;;;3.63;3.33;;;22.30;59.20;;;;;;5006595;28;20187;-79
2021/07/31 02:20:36;;;;;;;3.80;3.50;;;22.20;59.20;;;;;;5024029;28;20152;-79
2021/07/31 02:23:03;;;;;;;3.70;3.40;;;22.30;59.90;;;;;;5022592;28;20201;-80
2021/07/31 02:25:29;;;;;;;3.65;3.35;;;22.30;59.90;;;;;;5006330;28;20220;-79
2021/07/31 02:27:56;;;;;;;3.50;3.20;;;22.30;59.20;;;;;;5006060;28;20156;-79
2021/07/31 02:30:28;;;;;;;3.67;3.38;;;22.30;59.20;;;;;;4990749;28;20195;-79
2021/07/31 02:32:57;;;;;;;3.83;3.53;;;22.30;59.20;;;;;;5005205;28;20183;-79
2021/07/31 02:35:33;;;;;;;3.40;3.10;;;22.30;59.20;;;;;;5073633;28;20216;-79
2021/07/31 02:38:02;;;;;;;3.78;3.47;;;22.30;59.20;;;;;;4990745;28;20842;-80
2021/07/31 02:40:31;;;;;;;3.58;3.28;;;22.20;59.20;;;;;;5073289;28;20267;-80
2021/07/31 02:43:00;;;;;;;3.80;3.50;;;22.20;59.80;;;;;;4988599;28;20255;-79
2021/07/31 02:45:29;;;;;;;3.70;3.40;;;22.30;59.20;;;;;;5004960;28;20617;-79
2021/07/31 02:48:02;;;;;;;3.92;3.63;;;22.30;59.20;;;;;;5073629;28;20176;-80
2021/07/31 02:50:31;;;;;;;3.72;3.42;;;22.30;59.20;;;;;;4989501;28;20250;-80
2021/07/31 02:52:59;;;;;;;3.80;3.50;;;22.20;59.10;;;;;;5021174;28;20187;-81
2021/07/31 02:55:27;;;;;;;3.80;3.50;;;22.20;59.10;;;;;;4988082;28;20187;-79
2021/07/31 02:57:57;;;;;;;3.50;3.20;;;22.30;59.30;;;;;;5072869;28;20249;-79
2021/07/31 03:00:25;;;;;;;3.60;3.30;;;22.20;59.30;;;;;;5073426;28;20191;-80
2021/07/31 03:02:53;;;;;;;3.80;3.47;;;22.30;59.30;;;;;;5072927;28;20232;-79
2021/07/31 03:05:21;;;;;;;3.60;3.30;;;22.30;59.30;;;;;;5073505;28;20194;-81
2021/07/31 03:07:49;;;;;;;3.40;3.10;;;22.30;59.20;;;;;;5099172;28;20234;-78
2021/07/31 03:10:20;;;;;;;3.90;3.55;;;22.30;59.30;;;;;;5124895;28;20179;-79
2021/07/31 03:12:51;;;;;;;3.60;3.30;;;22.30;59.30;;;;;;5124046;28;20184;-78
2021/07/31 03:15:19;;;;;;;3.78;3.47;;;22.30;59.30;;;;;;5124742;28;20180;-79
2021/07/31 03:17:46;;;;;;;3.65;3.35;;;22.30;59.30;;;;;;5108164;28;20233;-81
2021/07/31 03:20:12;;;;;;;3.42;3.13;;;22.30;59.40;;;;;;5124654;28;20278;-79
2021/07/31 03:22:39;;;;;;;3.85;3.55;;;22.30;59.30;;;;;;5125774;28;20156;-80
2021/07/31 03:25:05;;;;;;;3.67;3.38;;;22.30;59.20;;;;;;5092090;28;20168;-80
2021/07/31 03:27:31;;;;;;;3.83;3.42;;;22.30;59.20;;;;;;5109302;28;20176;-79
2021/07/31 03:29:57;;;;;;;3.90;3.50;;;22.30;59.20;;;;;;5109365;28;20152;-79
2021/07/31 03:32:23;;;;;;;3.80;3.40;;;22.30;59.30;;;;;;5108777;28;20233;-79
2021/07/31 03:34:49;;;;;;;3.60;3.22;;;22.30;59.20;;;;;;5108671;28;20171;-78
2021/07/31 03:37:16;;;;;;;4.40;3.40;;;22.30;59.20;;;;;;5125786;28;20180;-79
2021/07/31 03:39:42;;;;;;;4.05;3.67;;;22.30;59.20;;;;;;5124804;28;20157;-80
2021/07/31 03:42:11;;;;;;;3.92;3.63;;;22.30;59.20;;;;;;5125451;28;20203;-78
2021/07/31 03:44:37;;;;;;;3.40;3.10;;;22.30;59.20;;;;;;5109043;28;20184;-79
2021/07/31 03:47:05;;;;;;;3.50;3.20;;;22.30;59.20;;;;;;5108071;28;20217;-79
2021/07/31 03:49:32;;;;;;;4.00;3.60;;;22.30;59.20;;;;;;5125412;28;20156;-79
2021/07/31 03:51:59;;;;;;;3.70;3.40;;;22.30;59.10;;;;;;5108817;28;20156;-79
2021/07/31 03:54:27;;;;;;;3.05;2.85;;;22.40;59.20;;;;;;5108577;28;20567;-79
2021/07/31 03:56:54;;;;;;;3.70;3.40;;;22.40;59.10;;;;;;5125349;28;20183;-79
2021/07/31 03:59:21;;;;;;;3.58;3.28;;;22.40;59.10;;;;;;5107507;28;20191;-79
2021/07/31 04:01:51;;;;;;;3.63;3.33;;;22.40;59.10;;;;;;5107978;28;20179;-79
2021/07/31 04:04:22;;;;;;;3.47;3.17;;;22.40;59.00;;;;;;5090788;28;20213;-79
2021/07/31 04:06:47;;;;;;;3.80;3.50;;;22.40;59.10;;;;;;5124311;28;20252;-79
2021/07/31 04:09:14;;;;;;;3.35;3.05;;;22.40;59.00;;;;;;5108626;28;20149;-79
2021/07/31 04:11:41;;;;;;;3.53;3.22;;;22.40;59.10;;;;;;5125129;28;20214;-79
2021/07/31 04:14:09;;;;;;;3.63;3.33;;;22.40;59.00;;;;;;5108851;28;20148;-79
2021/07/31 04:16:38;;;;;;;3.55;3.25;;;22.50;59.00;;;;;;5090988;28;20184;-78
2021/07/31 04:19:06;;;;;;;3.88;3.47;;;22.40;59.00;;;;;;5108099;28;20175;-79
2021/07/31 04:21:32;;;;;;;3.65;3.35;;;22.40;58.90;;;;;;5126190;28;20179;-79
2021/07/31 04:23:59;;;;;;;3.60;3.30;;;22.50;58.90;;;;;;5108070;28;20198;-79
2021/07/31 04:26:24;;;;;;;3.55;3.25;;;22.50;58.80;;;;;;5091903;28;20239;-79
2021/07/31 04:28:50;;;;;;;3.72;3.42;;;22.50;58.80;;;;;;5107531;28;20159;-79
2021/07/31 04:31:19;;;;;;;3.40;3.10;;;22.50;58.70;;;;;;5090758;28;20613;-79
2021/07/31 04:33:46;;;;;;;3.28;2.97;;;22.50;58.70;;;;;;5108343;28;20627;-79
2021/07/31 04:36:13;;;;;;;3.40;3.10;;;22.60;58.70;;;;;;5107856;28;20207;-79
2021/07/31 04:38:42;;;;;;;3.40;3.10;;;22.60;58.70;;;;;;5108876;28;20186;-79
2021/07/31 04:41:09;;;;;;;3.35;3.05;;;22.60;58.60;;;;;;5124049;28;20180;-79
2021/07/31 04:43:36;;;;;;;4.25;3.22;;;22.60;58.60;;;;;;5107730;28;20161;-79
2021/07/31 04:46:08;;;;;;;3.67;3.38;;;22.60;58.50;;;;;;5090657;28;20176;-79
2021/07/31 04:48:37;;;;;;;3.70;3.40;;;22.60;58.40;;;;;;5124457;28;20274;-78
2021/07/31 04:51:03;;;;;;;3.40;3.10;;;22.70;58.50;;;;;;5127912;28;20152;-79
2021/07/31 04:53:31;;;;;;;3.53;3.22;;;22.70;58.40;;;;;;5094322;28;20183;-79
2021/07/31 04:55:57;;;;;;;3.17;2.92;;;22.70;58.40;;;;;;5093898;28;20223;-78
2021/07/31 04:58:23;;;;;;;3.38;3.08;;;22.70;58.40;;;;;;5094513;28;20207;-79
2021/07/31 05:00:50;;;;;;;3.45;3.15;;;22.70;58.40;;;;;;5094716;28;20182;-79
2021/07/31 05:03:16;;;;;;;3.38;3.08;;;22.70;58.30;;;;;;5112040;28;20152;-79
2021/07/31 05:05:43;;;;;;;3.50;3.20;;;22.80;58.30;;;;;;5094397;28;20168;-79
2021/07/31 05:08:09;;;;;;;3.40;3.10;;;22.80;58.30;;;;;;5047061;28;20283;-79
2021/07/31 05:10:40;;;;;;;3.05;2.85;;;22.80;58.10;;;;;;5027623;28;20163;-79
2021/07/31 05:13:06;;;;;;;3.35;3.05;;;22.80;58.10;;;;;;5043794;28;20163;-78
2021/07/31 05:15:32;;;;;;;3.47;3.17;;;22.80;58.10;;;;;;5011629;28;20159;-79
2021/07/31 05:17:57;;;;;;;3.65;3.35;;;22.90;58.10;;;;;;5011579;28;20198;-79
2021/07/31 05:20:24;;;;;;;3.30;3.00;;;22.80;58.10;;;;;;5027604;28;20162;-78
2021/07/31 05:22:53;;;;;;;3.67;3.15;;;22.90;58.00;;;;;;5027946;28;20159;-79
2021/07/31 05:25:19;;;;;;;3.55;3.25;;;22.90;58.00;;;;;;5044605;28;20241;-79
2021/07/31 05:27:47;;;;;;;3.30;3.00;;;22.90;57.80;;;;;;5027701;28;20182;-79
2021/07/31 05:30:16;;;;;;;3.30;3.00;;;22.90;57.80;;;;;;5026849;28;20163;-79
2021/07/31 05:32:42;;;;;;;3.47;3.17;;;22.90;57.80;;;;;;5095196;28;20179;-79
2021/07/31 05:35:09;;;;;;;3.35;3.05;;;22.90;57.80;;;;;;5026412;28;20192;-79
2021/07/31 05:37:36;;;;;;;3.47;3.17;;;22.90;57.70;;;;;;5010608;28;20198;-79
2021/07/31 05:40:03;;;;;;;3.25;3.00;;;23.10;57.70;;;;;;5010513;28;20163;-79
2021/07/31 05:42:32;;;;;;;3.45;3.15;;;23.00;57.60;;;;;;5009971;28;20198;-80
2021/07/31 05:45:03;;;;;;;3.33;3.05;;;23.00;57.50;;;;;;5078015;28;20230;-79
2021/07/31 05:47:34;;;;;;;3.65;3.35;;;23.10;57.60;;;;;;5009649;28;20667;-79
2021/07/31 05:50:05;;;;;;;3.15;2.88;;;23.10;57.50;;;;;;5009231;28;20190;-80
2021/07/31 05:52:35;;;;;;;3.42;3.13;;;23.10;57.40;;;;;;5077653;28;20274;-79
2021/07/31 05:55:06;;;;;;;3.50;3.20;;;23.10;57.50;;;;;;5093917;28;20649;-79
2021/07/31 05:57:35;;;;;;;3.30;3.00;;;23.00;57.60;;;;;;5094112;28;20225;-79
2021/07/31 06:00:08;;;;;;;3.17;2.90;;;23.10;57.60;;;;;;5094257;28;20254;-79
2021/07/31 06:02:36;;;;;;;3.05;2.75;;;23.10;57.50;;;;;;5009065;28;20187;-80
2021/07/31 06:05:05;;;;;;;3.22;2.92;;;23.10;57.80;;;;;;5094725;28;20182;-81
2021/07/31 06:07:30;;;;;;;3.50;3.20;;;23.10;57.50;;;;;;5008341;28;20226;-79
2021/07/31 06:09:57;;;;;;;3.47;3.17;;;23.10;57.50;;;;;;5042440;28;20163;-80
2021/07/31 06:12:23;;;;;;;3.10;2.90;;;23.10;57.30;;;;;;5027071;28;20253;-80
2021/07/31 06:14:50;;;;;;;3.20;2.90;;;23.10;57.30;;;;;;5043019;28;20185;-79
2021/07/31 06:17:16;;;;;;;3.25;2.95;;;23.20;57.30;;;;;;5026050;28;20263;-79
2021/07/31 06:19:41;;;;;;;3.35;3.05;;;23.10;57.40;;;;;;5009407;28;20219;-79
2021/07/31 06:22:11;;;;;;;3.13;2.92;;;23.20;57.20;;;;;;5026446;28;20162;-80
2021/07/31 06:24:38;;;;;;;3.25;2.95;;;23.20;57.30;;;;;;5025861;28;20169;-79
2021/07/31 06:27:04;;;;;;;2.78;2.58;;;23.20;57.30;;;;;;5026327;28;20159;-79
2021/07/31 06:29:30;;;;;;;3.30;3.00;;;23.10;57.10;;;;;;5009605;28;20315;-80
2021/07/31 06:31:56;;;;;;;3.47;3.17;;;23.20;57.90;;;;;;5008863;28;20633;-79
2021/07/31 06:34:27;;;;;;;3.13;2.83;;;23.20;57.10;;;;;;5025959;28;20155;-79
2021/07/31 06:36:54;;;;;;;3.30;3.00;;;23.30;57.10;;;;;;5024904;28;20217;-79
2021/07/31 06:39:25;;;;;;;3.53;3.22;;;23.20;57.20;;;;;;5093936;28;20182;-79
2021/07/31 06:41:55;;;;;;;3.30;3.00;;;23.20;57.30;;;;;;5025053;28;20249;-79
2021/07/31 06:44:22;;;;;;;3.45;3.15;;;23.20;57.20;;;;;;5024685;28;20190;-79
2021/07/31 06:46:50;;;;;;;3.25;2.95;;;23.20;57.30;;;;;;5009789;28;20198;-79
2021/07/31 06:49:16;;;;;;;3.13;2.83;;;23.20;57.20;;;;;;5041735;28;20151;-79
2021/07/31 06:51:43;;;;;;;3.10;2.90;;;23.20;57.20;;;;;;5025413;28;20284;-79
2021/07/31 06:54:10;;;;;;;3.38;3.08;;;23.20;57.20;;;;;;5025215;28;20167;-79
2021/07/31 06:56:36;;;;;;;3.17;2.92;;;23.30;57.10;;;;;;5041565;28;20193;-79
2021/07/31 06:59:03;;;;;;;3.50;3.20;;;23.30;57.00;;;;;;5008939;28;20234;-79
2021/07/31 07:01:29;;;;;;;3.33;3.03;;;23.20;57.20;;;;;;5042627;28;20282;-80
2021/07/31 07:03:55;;;;;;;3.40;3.10;;;23.30;57.10;;;;;;5009168;28;20209;-79
2021/07/31 07:06:22;;;;;;;3.20;3.00;;;23.20;57.20;;;;;;5042308;28;20216;-79
2021/07/31 07:08:48;;;;;;;3.05;2.83;;;23.30;57.20;;;;;;5042284;28;20185;-79
2021/07/31 07:11:15;;;;;;;3.58;3.25;;;23.20;57.30;;;;;;5042202;28;20576;-79
2021/07/31 07:13:41;;;;;;;3.25;2.95;;;23.30;57.20;;;;;;5041280;28;20683;-79
2021/07/31 07:16:07;;;;;;;3.20;2.90;;;23.30;57.00;;;;;;5025671;28;20159;-79
2021/07/31 07:18:38;;;;;;;3.10;2.83;;;23.30;57.20;;;;;;5025817;28;20212;-79
2021/07/31 07:21:09;;;;;;;3.30;3.00;;;23.30;57.20;;;;;;5025203;28;20189;-79
2021/07/31 07:23:35;;;;;;;2.92;2.72;;;23.20;57.10;;;;;;5076042;28;20587;-79
2021/07/31 07:26:15;;;;;;;3.15;2.88;;;23.30;57.10;;;;;;5025546;28;20163;-79
2021/07/31 07:28:42;;;;;;;3.20;2.90;;;23.40;57.10;;;;;;5077688;28;20205;-80
2021/07/31 07:31:12;;;;;;;3.30;3.00;;;23.40;56.90;;;;;;5093572;28;20187;-79
2021/07/31 07:33:43;;;;;;;3.35;3.05;;;23.40;57.00;;;;;;5077068;28;20258;-80
2021/07/31 07:36:17;;;;;;;3.30;3.00;;;23.40;56.90;;;;;;5024697;28;20198;-78
2021/07/31 07:38:47;;;;;;;3.22;2.92;;;23.30;57.20;;;;;;5077154;28;20186;-79
2021/07/31 07:41:15;;;;;;;3.72;3.42;;;23.30;57.20;;;;;;5008705;28;20270;-80
2021/07/31 07:43:44;;;;;;;3.38;3.08;;;23.30;57.30;;;;;;5076915;28;20190;-79
2021/07/31 07:46:14;;;;;;;3.25;2.95;;;23.30;57.20;;;;;;5024577;28;20212;-79
2021/07/31 07:48:44;;;;;;;3.45;3.15;;;23.30;57.20;;;;;;5041549;28;20208;-79
2021/07/31 07:51:15;;;;;;;3.40;3.10;;;23.30;57.20;;;;;;5025543;28;20170;-79
2021/07/31 07:53:41;;;;;;;3.20;2.90;;;23.40;57.00;;;;;;5025318;28;20246;-79
2021/07/31 07:56:10;;;;;;;3.40;3.10;;;23.40;57.00;;;;;;5025221;28;20208;-79
2021/07/31 07:58:41;;;;;;;3.28;2.97;;;23.40;56.90;;;;;;5025142;28;20209;-79
2021/07/31 08:01:13;;;;;;;3.13;2.83;;;23.40;57.00;;;;;;5024902;28;20187;-81
2021/07/31 08:03:45;;;;;;;3.35;3.08;;;23.40;57.00;;;;;;5076933;28;20637;-79
2021/07/31 08:06:18;;;;;;;3.30;3.00;;;23.40;57.00;;;;;;5077347;28;20214;-79
2021/07/31 08:08:47;;;;;;;3.67;3.22;;;23.30;57.20;;;;;;5024863;28;20355;-79
2021/07/31 08:11:15;;;;;;;3.40;3.10;;;23.40;57.10;;;;;;5007926;28;20190;-79
2021/07/31 08:13:43;;;;;;;3.22;2.92;;;23.30;57.20;;;;;;5024586;28;20545;-79
2021/07/31 08:16:13;;;;;;;3.20;2.92;;;23.40;57.20;;;;;;5024646;28;20178;-79
2021/07/31 08:18:41;;;;;;;3.40;3.10;;;23.40;57.20;;;;;;5076950;28;20182;-79
2021/07/31 08:21:09;;;;;;;3.22;2.92;;;23.50;57.10;;;;;;5093387;28;20228;-79
2021/07/31 08:23:38;;;;;;;3.30;3.00;;;23.40;57.00;;;;;;5008933;28;20235;-79
2021/07/31 08:26:12;;;;;;;3.25;2.95;;;23.50;56.90;;;;;;5011369;28;20185;-79
2021/07/31 08:28:40;;;;;;;3.40;3.10;;;23.50;56.90;;;;;;5079755;28;20211;-79
2021/07/31 08:31:09;;;;;;;3.35;3.05;;;23.50;56.90;;;;;;5080390;28;20583;-79
2021/07/31 08:33:37;;;;;;;2.80;2.60;;;23.40;57.00;;;;;;5097838;28;20213;-79
2021/07/31 08:36:06;;;;;;;3.40;3.10;;;23.40;57.00;;;;;;5027780;28;20656;-79
2021/07/31 08:38:36;;;;;;;2.75;2.55;;;23.40;57.10;;;;;;4995580;28;20178;-79
2021/07/31 08:41:06;;;;;;;3.33;3.03;;;23.50;57.10;;;;;;5027765;28;20174;-79
2021/07/31 08:43:34;;;;;;;3.35;3.05;;;23.50;57.00;;;;;;5080852;28;20208;-79
2021/07/31 08:46:09;;;;;;;3.13;2.83;;;23.40;57.10;;;;;;5012258;28;20187;-79
2021/07/31 08:48:39;;;;;;;3.33;3.03;;;23.40;57.10;;;;;;5079905;28;20536;-79
2021/07/31 08:51:10;;;;;;;3.40;3.10;;;23.40;57.20;;;;;;5096969;28;20208;-79
2021/07/31 08:53:37;;;;;;;3.35;2.80;;;23.40;57.30;;;;;;5114922;28;20182;-79
2021/07/31 08:56:03;;;;;;;3.50;3.20;;;23.40;57.30;;;;;;5027998;28;20275;-79
2021/07/31 08:58:33;;;;;;;3.80;3.20;;;23.30;57.90;;;;;;5045989;28;20186;-79
2021/07/31 09:01:00;;;;;;;3.30;3.00;;;23.40;57.40;;;;;;5096511;28;20183;-80
2021/07/31 09:03:27;;;;;;;3.50;3.20;;;23.30;57.40;;;;;;5011425;28;20238;-80
2021/07/31 09:05:57;;;;;;;3.50;3.20;;;23.30;57.50;;;;;;5028500;28;20188;-79
2021/07/31 09:08:23;;;;;;;3.50;3.20;;;23.30;57.50;;;;;;5028016;28;20219;-79
2021/07/31 09:10:49;;;;;;;3.45;3.15;;;23.30;57.40;;;;;;5044645;28;20174;-79
2021/07/31 09:13:22;;;;;;;3.30;3.00;;;23.40;57.40;;;;;;5028454;28;20497;-79
2021/07/31 09:15:54;;;;;;;3.60;3.30;;;23.40;57.40;;;;;;5027351;28;20193;-79
2021/07/31 09:18:31;;;;;;;3.47;3.17;;;23.30;57.60;;;;;;5079316;28;20222;-79
2021/07/31 09:20:59;;;;;;;3.33;2.92;;;23.30;57.40;;;;;;5028304;28;20231;-79
2021/07/31 09:23:44;;;;;;;3.30;3.00;;;23.30;57.40;;;;;;5044452;28;20159;-79
2021/07/31 09:26:12;;;;;;;3.60;3.30;;;23.40;57.50;;;;;;5044629;28;20163;-79
2021/07/31 09:28:40;;;;;;;3.60;3.30;;;23.40;57.20;;;;;;5044517;28;20179;-79
2021/07/31 09:31:09;;;;;;;2.92;2.72;;;23.40;57.30;;;;;;5044371;28;20162;-79
2021/07/31 09:33:34;;;;;;;3.40;3.10;;;23.30;57.40;;;;;;5044822;28;20224;-79
2021/07/31 09:36:04;;;;;;;3.33;3.03;;;23.40;57.50;;;;;;5026755;28;20175;-79
2021/07/31 09:38:41;;;;;;;3.40;3.10;;;23.30;57.60;;;;;;5095723;28;20198;-79
2021/07/31 09:41:29;;;;;;;2.97;2.75;;;23.20;58.00;;;;;;5095876;28;20251;-79
2021/07/31 09:44:12;;;;;;;3.60;3.30;;;23.10;57.80;;;;;;5043650;28;20671;-79
2021/07/31 09:46:48;;;;;;;3.40;3.10;;;23.20;57.80;;;;;;4997338;28;20182;-81
2021/07/31 09:49:18;;;;;;;3.58;3.28;;;23.20;57.90;;;;;;5077803;28;20545;-79
2021/07/31 09:51:47;;;;;;;3.20;2.90;;;23.20;57.70;;;;;;5043933;28;20198;-79
2021/07/31 09:54:18;;;;;;;3.80;3.40;;;23.30;57.90;;;;;;5010681;28;20228;-80
2021/07/31 09:56:50;;;;;;;3.00;2.80;;;23.20;57.70;;;;;;5010562;28;20210;-79
2021/07/31 09:59:23;;;;;;;3.50;3.20;;;23.20;57.90;;;;;;5010860;28;20204;-80
2021/07/31 10:01:59;;;;;;;3.05;2.78;;;23.30;57.80;;;;;;5095610;28;20183;-79
2021/07/31 10:04:28;;;;;;;3.33;3.03;;;23.30;57.90;;;;;;5077925;28;20183;-79
2021/07/31 10:06:53;;;;;;;3.22;2.92;;;23.20;57.80;;;;;;5028217;28;20215;-79
2021/07/31 10:09:24;;;;;;;3.50;3.20;;;23.30;57.80;;;;;;5093777;28;20172;-79
2021/07/31 10:11:54;;;;;;;3.40;3.10;;;23.30;57.70;;;;;;5126382;28;20180;-79
2021/07/31 10:14:24;;;;;;;3.38;3.08;;;23.20;57.80;;;;;;5127022;28;20180;-79
2021/07/31 10:16:51;;;;;;;3.10;2.80;;;23.20;58.00;;;;;;5092818;28;20219;-79
2021/07/31 10:19:17;;;;;;;3.17;2.88;;;23.10;58.00;;;;;;5126766;28;20179;-79
2021/07/31 10:21:48;;;;;;;3.55;3.25;;;23.10;58.10;;;;;;5127364;28;20158;-81
2021/07/31 10:24:14;;;;;;;3.50;3.20;;;23.10;58.20;;;;;;5093549;28;20168;-79
2021/07/31 10:26:40;;;;;;;3.33;3.03;;;23.10;58.10;;;;;;5109604;28;20199;-79
2021/07/31 10:29:41;;;;;;;3.53;3.22;;;23.20;58.00;;;;;;5093512;28;20175;-79
2021/07/31 10:32:32;;;;;;;3.60;3.30;;;23.30;58.00;;;;;;5126753;28;20530;-80
2021/07/31 10:35:02;;;;;;;3.25;2.95;;;23.20;58.00;;;;;;5110209;28;20308;-80
2021/07/31 10:37:45;;;;;;;3.85;3.45;;;23.30;58.00;;;;;;5126631;28;20199;-79
2021/07/31 10:40:41;;;;;;;3.50;3.20;;;23.20;58.00;;;;;;5092653;28;20156;-79
2021/07/31 10:43:11;;;;;;;3.15;2.85;;;23.20;58.00;;;;;;5125970;28;20607;-79
2021/07/31 10:45:37;;;;;;;3.60;3.08;;;23.20;58.00;;;;;;5126232;28;20152;-80
2021/07/31 10:48:25;;;;;;;3.60;3.30;;;23.20;58.00;;;;;;5091849;28;20167;-79
2021/07/31 10:50:51;;;;;;;4.25;3.00;;;23.30;58.10;;;;;;5107768;28;20152;-79
2021/07/31 10:53:21;;;;;;;3.67;3.08;;;23.10;58.10;;;;;;5091964;28;20163;-80
2021/07/31 10:55:59;;;;;;;3.55;3.25;;;23.10;58.10;;;;;;5091883;28;20268;-80
2021/07/31 10:58:29;;;;;;;3.40;3.10;;;23.10;58.30;;;;;;5108032;28;20249;-79
2021/07/31 11:01:21;;;;;;;3.20;2.90;;;23.10;58.30;;;;;;5109766;28;20152;-79
2021/07/31 11:03:49;;;;;;;3.90;3.33;;;23.10;58.20;;;;;;5108964;28;20164;-79
2021/07/31 11:06:17;;;;;;;3.40;3.10;;;23.10;58.60;;;;;;5092737;28;20163;-79
2021/07/31 11:09:08;;;;;;;3.53;3.22;;;23.10;58.20;;;;;;5029428;28;20231;-79
2021/07/31 11:11:37;;;;;;;3.95;3.30;;;23.10;58.30;;;;;;5012629;28;20167;-79
2021/07/31 11:14:07;;;;;;;3.50;3.20;;;23.20;58.30;;;;;;5026032;28;20167;-79
2021/07/31 11:16:36;;;;;;;3.60;3.30;;;23.20;58.20;;;;;;5076805;28;20255;-79
2021/07/31 11:19:06;;;;;;;3.60;3.30;;;23.20;58.10;;;;;;5024764;28;20259;-79
2021/07/31 11:21:38;;;;;;;3.53;3.22;;;23.20;58.30;;;;;;5008484;28;20183;-79
2021/07/31 11:24:07;;;;;;;3.65;3.35;;;23.10;58.20;;;;;;5009343;28;20186;-79
2021/07/31 11:26:43;;;;;;;3.40;3.10;;;23.10;58.40;;;;;;5009756;28;20205;-80
2021/07/31 11:29:13;;;;;;;3.80;3.50;;;23.10;58.40;;;;;;5043542;28;20503;-79
2021/07/31 11:31:40;;;;;;;3.50;3.20;;;23.20;58.10;;;;;;5026104;28;20162;-79
2021/07/31 11:34:08;;;;;;;3.47;3.17;;;23.20;58.20;;;;;;5026181;28;20151;-79
2021/07/31 11:36:36;;;;;;;3.78;3.47;;;23.30;58.30;;;;;;5009931;28;20234;-79
2021/07/31 11:39:08;;;;;;;3.58;3.28;;;23.20;58.20;;;;;;5026152;28;20555;-78
2021/07/31 11:41:39;;;;;;;3.70;3.40;;;23.30;58.10;;;;;;5043387;28;20621;-78
2021/07/31 11:44:05;;;;;;;3.50;3.20;;;23.20;58.90;;;;;;5009393;28;20155;-79
2021/07/31 11:46:37;;;;;;;3.50;3.20;;;23.20;58.20;;;;;;5041781;28;20170;-78
2021/07/31 11:49:06;;;;;;;3.50;3.20;;;23.10;58.30;;;;;;5025604;28;20308;-78
2021/07/31 11:51:33;;;;;;;3.60;3.30;;;23.10;58.40;;;;;;5025699;28;20162;-79
2021/07/31 11:54:07;;;;;;;3.35;3.05;;;23.20;58.50;;;;;;5024565;28;20159;-79
2021/07/31 11:56:34;;;;;;;3.88;3.47;;;23.20;58.50;;;;;;5041102;28;20226;-79
2021/07/31 11:59:00;;;;;;;3.40;3.10;;;23.10;58.30;;;;;;5006528;28;20246;-79
2021/07/31 12:01:25;;;;;;;3.45;3.15;;;23.20;58.30;;;;;;5024815;28;20571;-79
2021/07/31 12:03:52;;;;;;;3.45;3.15;;;23.10;58.20;;;;;;5041128;28;20250;-78
2021/07/31 12:06:39;;;;;;;3.60;3.30;;;23.20;59.00;;;;;;5041438;28;20147;-78
2021/07/31 12:09:07;;;;;;;3.25;2.95;;;23.10;58.40;;;;;;5027806;28;20163;-78
2021/07/31 12:11:41;;;;;;;3.53;3.22;;;23.20;58.40;;;;;;5008274;28;20171;-78
2021/07/31 12:14:35;;;;;;;3.55;3.25;;;23.20;58.30;;;;;;5024640;28;20155;-80
2021/07/31 12:17:18;;;;;;;3.90;3.50;;;23.10;58.30;;;;;;5041172;28;20226;-78
2021/07/31 12:19:52;;;;;;;5.25;3.60;;;23.20;58.30;;;;;;5024803;28;20190;-78
2021/07/31 12:22:29;;;;;;;3.70;3.40;;;23.20;58.50;;;;;;5008076;28;20182;-79
2021/07/31 12:25:09;;;;;;;4.35;3.38;;;23.10;58.50;;;;;;5008832;28;20193;-78
2021/07/31 12:28:00;;;;;;;3.53;3.22;;;23.20;58.50;;;;;;5041790;28;20589;-79
2021/07/31 12:30:28;;;;;;;5.50;3.05;;;23.20;58.30;;;;;;5041826;28;20151;-79
2021/07/31 12:32:59;;;;;;;4.05;3.65;;;23.20;58.30;;;;;;5009789;28;20163;-78
2021/07/31 12:35:46;;;;;;;4.53;3.80;;;23.20;58.40;;;;;;5023296;28;20203;-80
2021/07/31 12:38:22;;;;;;;4.10;3.70;;;23.20;58.30;;;;;;5024138;28;20243;-79
2021/07/31 12:40:59;;;;;;;3.53;3.22;;;23.20;58.40;;;;;;5007035;28;20179;-79
2021/07/31 12:43:28;;;;;;;3.63;3.33;;;23.20;58.40;;;;;;5025131;28;20273;-79
2021/07/31 12:45:59;;;;;;;3.97;3.58;;;23.20;58.60;;;;;;5023762;28;20238;-79
2021/07/31 12:48:28;;;;;;;3.45;3.15;;;23.10;58.60;;;;;;5007067;28;20186;-79
2021/07/31 12:50:57;;;;;;;3.78;3.40;;;23.10;58.50;;;;;;5023166;28;20190;-79
2021/07/31 12:53:27;;;;;;;3.88;3.47;;;23.10;58.40;;;;;;5007357;28;20202;-79
2021/07/31 12:55:57;;;;;;;3.67;3.38;;;23.10;58.50;;;;;;5091640;28;20212;-80
2021/07/31 12:58:24;;;;;;;4.03;3.63;;;23.20;58.50;;;;;;5024238;28;20198;-79